Terminal Aerodrome Forecast
Issued by NWS Midland/Odessa, TX

Home | Current Version | Previous Version | Text Only | Print | Product List | Glossary On
Versions: 1 2 3 4 5 6 7 8 9 10 11 12 13 14 15 16 17 18 19 20 21 22 23 24 25 26 27 28 29 30
000
FTUS44 KMAF 081811 AAA
TAFMAF
TAF AMD
KMAF 081811Z 0818/0918 04015KT 4SM -SN SCT015 OVC030
      TEMPO 0818/0820 2SM -SN BR BKN015
     FM082000 06011KT P6SM OVC040
     FM082300 10006KT P6SM OVC060=

USA.gov is the U.S. government's official web portal to all federal, state and local government web resources and services.